createdAt,value
2022-10-06T00:02:03.911Z,96.74
2022-10-06T00:05:06.368Z,96.60
2022-10-06T00:08:10.268Z,96.51
2022-10-06T00:11:13.836Z,96.63
2022-10-06T00:14:15.651Z,96.63
2022-10-06T00:17:17.574Z,96.66
2022-10-06T00:20:20.173Z,96.38
2022-10-06T00:23:22.027Z,96.66
2022-10-06T00:26:24.431Z,96.46
2022-10-06T00:29:26.484Z,96.22
2022-10-06T00:32:28.186Z,96.59
2022-10-06T00:35:33.901Z,96.41
2022-10-06T00:38:35.949Z,96.55
2022-10-06T00:41:39.379Z,96.60
2022-10-06T00:44:41.716Z,96.27
2022-10-06T00:47:43.503Z,96.32
2022-10-06T00:50:46.057Z,96.69
2022-10-06T00:53:48.974Z,96.87
2022-10-06T00:56:51.084Z,96.69
2022-10-06T00:59:53.670Z,96.48
2022-10-06T01:03:07.708Z,96.08
2022-10-06T01:06:09.893Z,96.23
2022-10-06T01:09:13.897Z,95.95
2022-10-06T01:12:16.862Z,95.91
2022-10-06T01:15:20.074Z,96.34
2022-10-06T01:18:23.001Z,96.12
2022-10-06T01:21:32.803Z,96.02
2022-10-06T01:24:35.054Z,96.08
2022-10-06T01:27:38.435Z,96.65
2022-10-06T01:30:53.061Z,97.08
2022-10-06T01:33:55.858Z,96.87
2022-10-06T01:36:57.638Z,97.00
2022-10-06T01:39:59.416Z,96.32
2022-10-06T01:43:01.181Z,97.03
2022-10-06T01:46:03.035Z,96.95
2022-10-06T01:49:04.897Z,96.45
2022-10-06T01:52:06.909Z,97.25
2022-10-06T01:55:09.240Z,97.90
2022-10-06T01:58:11.773Z,98.34
2022-10-06T02:01:13.811Z,98.31
2022-10-06T02:04:16.424Z,98.84
2022-10-06T02:07:19.172Z,98.92
2022-10-06T02:10:21.104Z,98.63
2022-10-06T02:13:28.113Z,98.60
2022-10-06T02:16:31.609Z,98.68
2022-10-06T02:19:33.339Z,97.68
2022-10-06T02:22:39.868Z,97.91
2022-10-06T02:25:41.640Z,99.11
2022-10-06T02:28:44.944Z,99.62
2022-10-06T02:31:47.128Z,99.73
2022-10-06T02:34:49.958Z,99.74
2022-10-06T02:37:51.651Z,99.55
2022-10-06T02:40:57.745Z,99.68
2022-10-06T02:43:59.614Z,99.89
2022-10-06T02:47:01.349Z,99.75
2022-10-06T02:50:06.253Z,99.09
2022-10-06T02:53:12.648Z,98.54
2022-10-06T02:56:17.430Z,97.57
2022-10-06T02:59:19.263Z,97.53
2022-10-06T03:02:21.137Z,97.52
2022-10-06T03:05:23.306Z,97.73
2022-10-06T03:08:25.268Z,97.64
2022-10-06T03:11:33.171Z,97.89
2022-10-06T03:14:35.173Z,98.06
2022-10-06T03:17:36.906Z,97.93
2022-10-06T03:20:38.823Z,98.47
2022-10-06T03:23:42.634Z,98.45
2022-10-06T03:26:47.765Z,98.44
2022-10-06T03:29:49.776Z,98.81
2022-10-06T03:32:52.662Z,99.54
2022-10-06T03:36:07.179Z,99.99
2022-10-06T03:39:09.173Z,99.98
2022-10-06T03:42:10.985Z,99.97
2022-10-06T03:45:12.971Z,99.47
2022-10-06T03:48:14.772Z,98.77
2022-10-06T03:51:27.416Z,98.41
2022-10-06T03:54:29.195Z,98.09
2022-10-06T03:57:31.097Z,98.36
2022-10-06T04:00:32.936Z,98.38
2022-10-06T04:03:35.114Z,98.51
2022-10-06T04:06:39.171Z,98.63
2022-10-06T04:09:41.189Z,99.03
2022-10-06T04:12:43.003Z,99.03
2022-10-06T04:15:46.105Z,99.31
2022-10-06T04:18:54.020Z,99.63
2022-10-06T04:21:56.214Z,100.00
2022-10-06T04:24:58.030Z,100.00
2022-10-06T04:28:00.286Z,100.00
2022-10-06T04:31:02.223Z,99.61
2022-10-06T04:34:06.019Z,99.27
2022-10-06T04:37:07.785Z,99.34
2022-10-06T04:40:09.995Z,98.43
2022-10-06T04:43:14.930Z,99.37
2022-10-06T04:46:41.423Z,99.97
2022-10-06T04:49:39.759Z,100.00
2022-10-06T04:52:41.593Z,100.00
2022-10-06T04:55:43.298Z,100.00
2022-10-06T04:58:46.214Z,99.62
2022-10-06T05:01:48.206Z,99.54
2022-10-06T05:04:50.026Z,99.57
2022-10-06T05:07:51.782Z,99.73
2022-10-06T05:11:00.482Z,99.92
2022-10-06T05:14:02.641Z,99.36
2022-10-06T05:17:04.437Z,99.14
2022-10-06T05:20:06.783Z,99.35
2022-10-06T05:23:08.596Z,99.94
2022-10-06T05:26:15.819Z,100.00
2022-10-06T05:29:17.599Z,100.00
2022-10-06T05:32:19.415Z,100.00
2022-10-06T05:35:21.701Z,100.00
2022-10-06T05:38:24.330Z,100.00
2022-10-06T05:41:29.010Z,100.00
2022-10-06T05:44:30.830Z,100.00
2022-10-06T05:47:32.699Z,100.00
2022-10-06T05:50:34.506Z,100.00
2022-10-06T05:53:37.199Z,100.00
2022-10-06T05:56:39.221Z,100.00
2022-10-06T05:59:41.138Z,100.00
2022-10-06T06:02:43.364Z,100.00
2022-10-06T06:05:46.002Z,100.00
2022-10-06T06:08:49.135Z,100.00
2022-10-06T06:11:53.176Z,100.00
2022-10-06T06:15:13.325Z,100.00
2022-10-06T06:18:15.090Z,100.00
2022-10-06T06:21:17.141Z,100.00
2022-10-06T06:24:19.017Z,100.00
2022-10-06T06:27:21.137Z,100.00
2022-10-06T06:30:24.030Z,99.34
2022-10-06T06:33:25.842Z,99.06
2022-10-06T06:36:32.079Z,98.77
2022-10-06T06:39:34.068Z,98.95
2022-10-06T06:42:35.840Z,99.07
2022-10-06T06:45:37.705Z,99.18
2022-10-06T06:48:39.664Z,99.23
2022-10-06T06:51:43.573Z,99.08
2022-10-06T06:54:46.358Z,97.02
2022-10-06T06:57:49.724Z,95.44
2022-10-06T07:00:51.786Z,95.41
2022-10-06T07:03:58.307Z,95.78
2022-10-06T07:07:00.906Z,97.35
2022-10-06T07:10:02.761Z,98.13
2022-10-06T07:13:06.303Z,98.89
2022-10-06T07:16:31.297Z,99.32
2022-10-06T07:19:51.297Z,97.85
2022-10-06T07:23:12.141Z,96.54
2022-10-06T07:26:13.955Z,96.09
2022-10-06T07:29:15.791Z,94.19
2022-10-06T07:32:21.433Z,93.62
2022-10-06T07:35:24.543Z,93.70
2022-10-06T07:38:27.684Z,93.71
2022-10-06T07:41:31.157Z,93.15
2022-10-06T07:44:32.913Z,93.19
2022-10-06T07:47:38.277Z,93.07
2022-10-06T07:50:41.428Z,93.24
2022-10-06T07:53:53.702Z,93.53
2022-10-06T07:56:56.009Z,94.27
2022-10-06T08:00:02.090Z,94.44
2022-10-06T08:03:05.259Z,94.71
2022-10-06T08:06:12.622Z,94.87
2022-10-06T08:09:14.605Z,94.74
2022-10-06T08:12:34.894Z,95.81
2022-10-06T08:15:36.932Z,95.66
2022-10-06T08:18:46.551Z,94.16
2022-10-06T08:21:48.912Z,92.86
2022-10-06T08:25:05.366Z,93.06
2022-10-06T08:28:08.698Z,92.75
2022-10-06T08:31:15.773Z,92.91
2022-10-06T08:34:18.464Z,93.06
2022-10-06T08:37:27.496Z,94.74
2022-10-06T08:40:29.647Z,94.08
2022-10-06T08:43:32.648Z,92.05
2022-10-06T08:46:40.639Z,91.33
2022-10-06T08:49:46.062Z,89.11
2022-10-06T08:52:59.771Z,87.99
2022-10-06T08:56:18.156Z,84.77
2022-10-06T08:59:20.611Z,84.89
2022-10-06T09:02:32.534Z,82.91
2022-10-06T09:05:35.128Z,82.91
2022-10-06T09:08:43.826Z,80.51
2022-10-06T09:12:04.360Z,80.64
2022-10-06T09:15:15.064Z,81.18
2022-10-06T09:18:23.162Z,83.72
2022-10-06T09:21:35.415Z,83.04
2022-10-06T09:24:47.227Z,82.44
2022-10-06T09:27:55.527Z,82.91
2022-10-06T09:31:01.653Z,82.48
2022-10-06T09:34:21.839Z,83.77
2022-10-06T09:37:24.020Z,84.98
2022-10-06T09:40:54.373Z,85.43
2022-10-06T09:44:02.605Z,87.00
2022-10-06T09:47:23.774Z,86.05
2022-10-06T09:50:27.800Z,85.86
2022-10-06T09:53:30.877Z,84.05
2022-10-06T09:56:36.437Z,83.42
2022-10-06T09:59:43.061Z,82.79
2022-10-06T10:02:45.192Z,82.92
2022-10-06T10:05:51.703Z,82.72
2022-10-06T10:09:24.874Z,82.42
2022-10-06T10:12:30.981Z,81.82
2022-10-06T10:15:54.312Z,82.36
2022-10-06T10:18:56.187Z,84.07
2022-10-06T10:21:58.075Z,84.44
2022-10-06T10:25:14.058Z,84.22
2022-10-06T10:28:38.224Z,85.02
2022-10-06T10:31:50.289Z,84.28
2022-10-06T10:35:06.503Z,81.50
2022-10-06T10:38:20.964Z,82.33
2022-10-06T10:41:30.088Z,80.96
2022-10-06T10:44:35.345Z,80.34
2022-10-06T10:47:39.157Z,77.15
2022-10-06T10:50:46.759Z,77.58
2022-10-06T10:53:52.642Z,78.46
2022-10-06T10:56:54.540Z,80.77
2022-10-06T11:00:00.949Z,78.93
2022-10-06T11:03:02.942Z,78.53
2022-10-06T11:06:25.076Z,76.15
2022-10-06T11:10:04.930Z,76.40
2022-10-06T11:13:22.340Z,77.15
2022-10-06T11:16:27.251Z,75.58
2022-10-06T11:19:42.133Z,75.36
2022-10-06T11:22:50.687Z,77.26
2022-10-06T11:25:56.847Z,78.10
2022-10-06T11:29:15.986Z,78.34
2022-10-06T11:32:29.845Z,78.21
2022-10-06T11:35:41.381Z,79.71
2022-10-06T11:38:49.941Z,80.14
2022-10-06T11:42:03.579Z,79.60
2022-10-06T11:45:14.006Z,79.75
2022-10-06T11:48:21.260Z,78.62
2022-10-06T11:51:26.433Z,76.66
2022-10-06T11:54:40.481Z,75.40
2022-10-06T11:58:23.524Z,76.01
2022-10-06T12:01:28.271Z,77.52
2022-10-06T12:04:30.430Z,78.46
2022-10-06T12:07:52.422Z,78.68
2022-10-06T12:10:55.199Z,77.24
2022-10-06T12:15:31.794Z,77.74
2022-10-06T12:17:25.967Z,77.71
2022-10-06T12:20:37.103Z,76.63
2022-10-06T12:24:02.416Z,77.09
2022-10-06T12:27:29.515Z,77.99
2022-10-06T12:30:34.225Z,78.36
2022-10-06T12:33:39.028Z,78.32
2022-10-06T12:36:44.871Z,79.02
2022-10-06T12:39:46.935Z,79.41
2022-10-06T12:42:48.763Z,79.55
2022-10-06T12:45:56.848Z,80.39
2022-10-06T12:49:05.084Z,80.82
2022-10-06T12:52:39.436Z,80.92
2022-10-06T12:55:48.245Z,80.81
2022-10-06T12:58:50.147Z,80.60
2022-10-06T13:01:55.404Z,81.05
2022-10-06T13:05:11.013Z,80.62
2022-10-06T13:08:34.362Z,81.15
2022-10-06T13:11:36.343Z,81.70
2022-10-06T13:14:38.174Z,81.44
2022-10-06T13:17:46.823Z,81.21
2022-10-06T13:20:51.735Z,80.40
2022-10-06T13:23:53.492Z,81.04
2022-10-06T13:26:56.400Z,80.99
2022-10-06T13:30:21.335Z,80.03
2022-10-06T13:33:24.287Z,79.51
2022-10-06T13:36:28.260Z,78.78
2022-10-06T13:39:32.998Z,78.54
2022-10-06T13:42:35.030Z,78.55
2022-10-06T13:45:41.927Z,78.74
2022-10-06T13:48:50.053Z,79.45
2022-10-06T13:52:01.181Z,79.49
2022-10-06T13:55:04.858Z,78.98
2022-10-06T13:58:10.280Z,78.91
2022-10-06T14:01:12.247Z,79.88
2022-10-06T14:04:14.735Z,80.49
2022-10-06T14:07:17.179Z,80.83
2022-10-06T14:10:21.219Z,81.03
2022-10-06T14:13:24.144Z,81.03
2022-10-06T14:16:26.916Z,80.72
2022-10-06T14:19:37.458Z,80.91
2022-10-06T14:22:39.370Z,81.11
2022-10-06T14:25:41.111Z,81.90
2022-10-06T14:28:53.124Z,81.77
2022-10-06T14:31:54.910Z,81.30
2022-10-06T14:34:56.770Z,81.32
2022-10-06T14:37:59.139Z,80.96
2022-10-06T14:41:03.159Z,80.30
2022-10-06T14:44:11.564Z,80.45
2022-10-06T14:47:13.346Z,80.41
2022-10-06T14:50:15.644Z,80.65
2022-10-06T14:53:17.822Z,80.09
2022-10-06T14:56:20.266Z,79.86
2022-10-06T14:59:22.278Z,80.36
2022-10-06T15:02:24.143Z,80.41
2022-10-06T15:05:26.058Z,80.65
2022-10-06T15:08:28.216Z,80.57
2022-10-06T15:11:30.458Z,80.95
2022-10-06T15:14:33.680Z,81.14
2022-10-06T15:17:35.910Z,81.35
2022-10-06T15:20:38.397Z,81.64
2022-10-06T15:23:40.197Z,81.90
2022-10-06T15:27:01.409Z,82.18
2022-10-06T15:30:03.508Z,82.33
2022-10-06T15:33:06.214Z,82.59
2022-10-06T15:36:16.978Z,82.78
2022-10-06T15:39:21.165Z,82.98
2022-10-06T15:42:24.863Z,83.33
2022-10-06T15:45:26.709Z,83.43
2022-10-06T15:48:28.471Z,83.63
2022-10-06T15:51:34.347Z,83.82
2022-10-06T15:54:40.911Z,83.95
2022-10-06T15:57:42.625Z,84.00
2022-10-06T16:00:44.471Z,84.17
2022-10-06T16:03:46.493Z,84.31
2022-10-06T16:06:54.558Z,84.45
2022-10-06T16:09:56.386Z,84.62
2022-10-06T16:12:58.309Z,84.80
2022-10-06T16:16:00.546Z,84.85
2022-10-06T16:19:02.491Z,85.03
2022-10-06T16:22:06.171Z,85.11
2022-10-06T16:25:08.240Z,85.26
2022-10-06T16:28:10.306Z,85.39
2022-10-06T16:31:12.268Z,85.53
2022-10-06T16:34:14.277Z,85.66
2022-10-06T16:37:16.234Z,85.74
2022-10-06T16:40:18.113Z,85.75
2022-10-06T16:43:19.835Z,86.08
2022-10-06T16:46:27.928Z,86.29
2022-10-06T16:49:29.705Z,86.23
2022-10-06T16:52:31.596Z,86.29
2022-10-06T16:55:33.287Z,86.52
2022-10-06T16:58:45.551Z,86.71
2022-10-06T17:01:48.409Z,86.96
2022-10-06T17:04:50.516Z,87.10
2022-10-06T17:07:56.930Z,87.25
2022-10-06T17:11:10.702Z,86.90
2022-10-06T17:14:13.005Z,87.30
2022-10-06T17:17:14.883Z,87.43
2022-10-06T17:20:16.830Z,87.76
2022-10-06T17:23:18.629Z,87.75
2022-10-06T17:26:22.429Z,88.06
2022-10-06T17:29:24.538Z,88.09
2022-10-06T17:32:26.279Z,88.34
2022-10-06T17:35:28.187Z,88.67
2022-10-06T17:38:31.850Z,88.77
2022-10-06T17:41:37.378Z,89.33
2022-10-06T17:44:39.490Z,90.08
2022-10-06T17:47:41.686Z,89.34
2022-10-06T17:50:43.439Z,88.65
2022-10-06T17:53:49.223Z,89.01
2022-10-06T17:56:53.267Z,89.30
2022-10-06T17:59:59.096Z,89.37
2022-10-06T18:03:00.869Z,89.51
2022-10-06T18:06:03.895Z,90.29
2022-10-06T18:09:06.892Z,90.27
2022-10-06T18:12:10.605Z,90.11
2022-10-06T18:15:12.438Z,90.20
2022-10-06T18:18:14.382Z,90.43
2022-10-06T18:21:17.405Z,90.48
2022-10-06T18:24:21.712Z,90.49
2022-10-06T18:27:24.339Z,90.74
2022-10-06T18:30:29.388Z,91.36
2022-10-06T18:36:53.222Z,91.99
2022-10-06T18:39:55.360Z,92.28
2022-10-06T18:42:57.083Z,92.50
2022-10-06T18:46:22.534Z,92.42
2022-10-06T18:49:25.493Z,92.48
2022-10-06T18:52:27.467Z,92.47
2022-10-06T18:55:29.973Z,92.49
2022-10-06T18:58:32.368Z,92.24
2022-10-06T19:01:35.163Z,91.74
2022-10-06T19:04:37.325Z,91.72
2022-10-06T19:07:39.178Z,92.00
2022-10-06T19:11:01.000Z,92.28
2022-10-06T19:14:02.780Z,92.67
2022-10-06T19:17:07.265Z,93.22
2022-10-06T19:20:10.969Z,93.66
2022-10-06T19:23:15.059Z,93.99
2022-10-06T19:26:16.906Z,94.68
2022-10-06T19:29:23.934Z,94.91
2022-10-06T19:32:28.531Z,94.99
2022-10-06T19:35:30.550Z,94.84
2022-10-06T19:38:32.754Z,94.87
2022-10-06T19:41:56.995Z,94.98
2022-10-06T19:44:58.928Z,94.88
2022-10-06T19:48:00.868Z,94.62
2022-10-06T19:51:14.428Z,94.43
2022-10-06T19:54:18.414Z,94.23
2022-10-06T19:57:20.252Z,94.07
2022-10-06T20:00:22.001Z,94.04
2022-10-06T20:03:51.821Z,94.07
2022-10-06T20:06:53.900Z,94.11
2022-10-06T20:09:55.903Z,94.13
2022-10-06T20:12:58.783Z,94.25
2022-10-06T20:16:02.027Z,94.30
2022-10-06T20:19:05.607Z,94.39
2022-10-06T20:22:07.496Z,94.52
2022-10-06T20:25:09.575Z,94.51
2022-10-06T20:28:11.437Z,94.60
2022-10-06T20:31:28.310Z,94.67
2022-10-06T20:34:32.314Z,94.81
2022-10-06T20:37:34.312Z,94.81
2022-10-06T20:40:49.262Z,94.80
2022-10-06T20:43:54.052Z,94.97
2022-10-06T20:46:55.809Z,94.93
2022-10-06T20:49:57.515Z,95.04
2022-10-06T20:52:59.355Z,95.18
2022-10-06T20:56:01.743Z,95.19
2022-10-06T20:59:07.778Z,95.27
2022-10-06T21:02:09.901Z,95.41
2022-10-06T21:05:11.956Z,95.32
2022-10-06T21:08:13.668Z,95.54
2022-10-06T21:11:17.503Z,95.53
2022-10-06T21:14:20.053Z,95.53
2022-10-06T21:17:21.941Z,95.54
2022-10-06T21:20:23.679Z,95.45
2022-10-06T21:23:25.554Z,95.13
2022-10-06T21:26:27.945Z,94.79
2022-10-06T21:29:29.604Z,94.78
2022-10-06T21:32:32.223Z,94.99
2022-10-06T21:35:33.970Z,95.28
2022-10-06T21:38:41.914Z,95.29
2022-10-06T21:41:43.701Z,95.49
2022-10-06T21:44:45.469Z,95.37
2022-10-06T21:47:47.279Z,95.13
2022-10-06T21:50:55.195Z,95.44
2022-10-06T21:53:57.591Z,95.71
2022-10-06T21:56:59.353Z,95.97
2022-10-06T22:00:01.110Z,96.64
2022-10-06T22:03:02.909Z,96.80
2022-10-06T22:06:06.278Z,96.97
2022-10-06T22:09:09.617Z,96.94
2022-10-06T22:12:11.433Z,96.89
2022-10-06T22:15:13.174Z,96.99
2022-10-06T22:18:17.937Z,97.03
2022-10-06T22:21:28.488Z,97.07
2022-10-06T22:24:30.286Z,96.96
2022-10-06T22:27:32.440Z,97.09
2022-10-06T22:30:34.286Z,97.12
2022-10-06T22:33:38.157Z,97.30
2022-10-06T22:36:40.192Z,97.28
2022-10-06T22:39:42.024Z,97.24
2022-10-06T22:42:43.706Z,97.21
2022-10-06T22:45:45.618Z,97.22
2022-10-06T22:48:47.361Z,97.28
2022-10-06T22:51:49.161Z,97.48
2022-10-06T22:54:51.005Z,98.15
2022-10-06T22:57:52.690Z,97.90
2022-10-06T23:00:54.578Z,97.68
2022-10-06T23:03:57.088Z,97.85
2022-10-06T23:07:18.690Z,97.37
2022-10-06T23:10:21.581Z,97.55
2022-10-06T23:13:23.265Z,97.84
2022-10-06T23:16:25.342Z,97.93
2022-10-06T23:19:27.229Z,97.75
2022-10-06T23:22:29.023Z,97.53
2022-10-06T23:25:30.793Z,97.54
2022-10-06T23:28:32.700Z,97.40
2022-10-06T23:31:34.633Z,97.64
2022-10-06T23:34:37.229Z,97.38
2022-10-06T23:37:39.013Z,97.30
2022-10-06T23:40:40.718Z,97.50
2022-10-06T23:43:42.845Z,97.53
2022-10-06T23:46:44.935Z,97.97
2022-10-06T23:49:49.799Z,97.92
2022-10-06T23:52:51.516Z,97.88
2022-10-06T23:55:53.960Z,97.72
2022-10-06T23:58:55.605Z,97.33
